Nearby METAR Reports

METAR is the scheduled surface weather observation taken hourly at civil and military airport locations.

METAR is an acronym from the French language and roughly translates as Aviation Routine Weather Report.

 

EGPL - Benbecula Island, United Kingdom
Distance from station: WNW 41mi, 66km
Updated: 21/09/2020 13:20
Mostly cloudy
Mostly cloudy
 Wind from SW
Wind: SW 21 mph , 33 km/h
Temperature: 14°C
Dew Point: 12°C
Humidity: 88%
Barometer: 1012 hPa
Clouds: Mostly cloudy
Visibility: 6 miles , 10 km
Cloud details: Partly cloudy 335 m
Mostly cloudy 579 m
2020/09/21 12:20 EGPL 211220Z 22018KT 9999 SCT011 BKN019 14/12 Q1012
EGPU - Tiree Island, United Kingdom
Distance from station: SSW 56mi, 90km
Updated: 21/09/2020 13:50
Mostly cloudy
Mostly cloudy
 Wind from WSW
Wind: WSW 15 mph , 24 km/h
Temperature: 14°C
Dew Point: 10°C
Humidity: 77%
Barometer: 1014 hPa
Clouds: Mostly cloudy
Visibility: 6 miles , 10 km
Cloud details: Mostly cloudy 549 m
Mostly cloudy 914 m
2020/09/21 12:50 EGPU 211250Z 24013KT 9999 BKN018 BKN030 14/10 Q1014
 
EGEO - Oban Airport, United Kingdom
Distance from station: SE 65mi, 105km
Updated: 21/09/2020 13:50
Mostly cloudy
Mostly cloudy
 Wind from WSW
Wind: WSW 12 mph , 19 km/h
Temperature: 14°C
Dew Point: 10°C
Humidity: 77%
Barometer: 1015 hPa
Clouds: Mostly cloudy
Visibility: 6 miles , 10 km
Cloud details: Partly cloudy 610 m
Mostly cloudy 884 m
2020/09/21 12:50 EGEO 211250Z 24010KT 9999 SCT020 BKN029 14/10 Q1015
EGPO - Stornoway, United Kingdom
Distance from station: 0 66mi, 106km
Updated: 21/09/2020 13:20
Light rain, Mostly cloudy
Light rain, Mostly cloudy
 Wind from SSW
Wind: SSW 20 mph , 31 km/h
Temperature: 13°C
Dew Point: 12°C
Humidity: 94%
Barometer: 1010 hPa
Summary: Light rain
Clouds: Mostly cloudy
Visibility: 6 miles , 10 km
Cloud details: Few Clouds 457 m
Mostly cloudy 549 m
2020/09/21 12:20 EGPO 211220Z 21017KT 9999 -RA FEW015 BKN018 13/12 Q1010
 
EGPE - Inverness/Dalcro, United Kingdom
Distance from station: ENE 88mi, 141km
Updated: 21/09/2020 13:20
Few Clouds
Few Clouds
 Wind from SSW
Wind: SSW 20 mph , 31 km/h
Temperature: 15°C
Dew Point: 10°C
Humidity: 72%
Barometer: 1011 hPa
Clouds: Few Clouds
Visibility: 6 miles , 10 km
Cloud details: Few Clouds 823 m
2020/09/21 12:20 EGPE 211220Z 21017KT 9999 FEW027 15/10 Q1011
EGQA - Tain Range (saws, United Kingdom
Distance from station: ENE 97mi, 156km
Updated: 16/09/2020 14:50
NOT Current
Mostly cloudy
Mostly cloudy
 Wind from E
Wind: E 10 mph , 17 km/h
Clouds: Mostly cloudy
Visibility: 6 miles , 10 km
Cloud details: Mostly cloudy 823 m
2020/09/16 13:50 EGQA 161350Z 08009KT 9999 BKN027 15/// Q1032 RMK BLU
 
EGQK - Kinloss Raf, United Kingdom
Distance from station: ENE 107mi, 171km
Updated: 21/09/2020 13:18
Clear
Clear
 Wind from SW
Wind: SW 20 mph , 31 km/h
Temperature: 16°C
Dew Point: 9°C
Humidity: 63%
Barometer: 1011 hPa
Summary: Clear
Visibility: greater than 7 miles , 10 km
2020/09/21 12:18 EGQK 211218Z 23017KT CAVOK 16/09 Q1011 BLU
EGPI - Islay/Port Ellen, United Kingdom
Distance from station: S 110mi, 177km
Updated: 21/09/2020 13:20
Mostly cloudy
Mostly cloudy
 Wind from SW
Wind: SW 12 mph , 19 km/h
Temperature: 14°C
Dew Point: 11°C
Humidity: 82%
Barometer: 1015 hPa
Clouds: Mostly cloudy
Visibility: 6 miles , 10 km
Cloud details: Partly cloudy 457 m
Mostly cloudy 732 m
2020/09/21 12:20 EGPI 211220Z 22010KT 9999 SCT015 BKN024 14/11 Q1015
 
EGQS - Lossiemouth Raf, United Kingdom
Distance from station: ENE 117mi, 188km
Updated: 21/09/2020 12:50
Clear
Clear
 Wind from WSW
Wind: WSW 22 mph , 35 km/h
Temperature: 16°C
Dew Point: 9°C
Humidity: 63%
Barometer: 1011 hPa
Clouds: Clear
Visibility: 6 miles , 10 km
2020/09/21 11:50 EGQS 211150Z AUTO 24019KT 9999 // NCD 16/09 Q1011
EGPF - Glasgow Airport, United Kingdom
Distance from station: SE 121mi, 195km
Updated: 21/09/2020 13:20
Overcast
Overcast
 Wind from WSW
Wind: WSW 10 mph , 17 km/h
Temperature: 15°C
Dew Point: 10°C
Humidity: 72%
Barometer: 1015 hPa
Clouds: Overcast
Visibility: 6 miles , 10 km
Cloud details: Overcast 823 m
2020/09/21 12:20 EGPF 211220Z AUTO 25009KT 9999 OVC027 15/10 Q1015
 
EGEC - Campbeltown, United Kingdom
Distance from station: SSE 129mi, 207km
Updated: 21/09/2020 13:50
Mostly cloudy
Mostly cloudy
 Wind from WSW
Wind: WSW 12 mph , 19 km/h
Temperature: 15°C
Dew Point: 10°C
Humidity: 72%
Barometer: 1016 hPa
Clouds: Mostly cloudy
Visibility: 6 miles , 10 km
Cloud details: Mostly cloudy 823 m
2020/09/21 12:50 EGEC 211250Z 24010KT 9999 BKN027 15/10 Q1016
EGPN - Dundee/Riverside, United Kingdom
Distance from station: ESE 137mi, 221km
Updated: 21/09/2020 13:20
Few Clouds
Few Clouds
 Wind from WSW
Wind: WSW 21 mph , 33 km/h
Temperature: 17°C
Dew Point: 12°C
Humidity: 73%
Barometer: 1013 hPa
Clouds: Few Clouds
Visibility: 6 miles , 10 km
Cloud details: Few Clouds 914 m
2020/09/21 12:20 EGPN 211220Z 25018KT 9999 FEW030 17/12 Q1013
 
EGPK - Prestwick(Civ/Na, United Kingdom
Distance from station: SSE 139mi, 224km
Updated: 21/09/2020 13:20
Mostly cloudy
Mostly cloudy
 Wind from SW
Wind: SW 12 mph , 19 km/h
Temperature: 14°C
Dew Point: 11°C
Humidity: 82%
Barometer: 1016 hPa
Clouds: Mostly cloudy
Visibility: 6 miles , 10 km
Cloud details: Few Clouds 488 m
Mostly cloudy 640 m
2020/09/21 12:20 EGPK 211220Z 23010KT 9999 FEW016 BKN021 14/11 Q1016
EGQL - Leuchars Raf, United Kingdom
Distance from station: ESE 145mi, 233km
Updated: 21/09/2020 12:50
Partly cloudy
Partly cloudy
 Wind from WSW
Wind: WSW 21 mph , 33 km/h
Temperature: 16°C
Dew Point: 10°C
Humidity: 68%
Barometer: 1013 hPa
Clouds: Partly cloudy
Visibility: 6 miles , 10 km
Cloud details: Few Clouds 732 m
Partly cloudy 7620 m
2020/09/21 11:50 EGQL 211150Z 25018KT 9999 FEW024 SCT250 16/10 Q1013 BLU
 
EGPH - Edinburgh Airpor, United Kingdom
Distance from station: SE 145mi, 234km
Updated: 21/09/2020 13:20
Mostly cloudy
Mostly cloudy
 Wind from WSW
Wind: WSW 16 mph , 26 km/h
Temperature: 17°C
Dew Point: 11°C
Humidity: 68%
Barometer: 1014 hPa
Clouds: Mostly cloudy
Visibility: 6 miles , 10 km
Cloud details: Mostly cloudy 671 m
2020/09/21 12:20 EGPH 211220Z 24014KT 9999 BKN022 17/11 Q1014
EGPC - Wick, United Kingdom
Distance from station: NE 146mi, 234km
Updated: 21/09/2020 13:20
Few Clouds
Few Clouds
 Wind from SSW
Wind: SSW 8 mph , 13 km/h
Temperature: 15°C
Dew Point: 11°C
Humidity: 77%
Barometer: 1010 hPa
Clouds: Few Clouds
Visibility: 6 miles , 10 km
Cloud details: Few Clouds 457 m
2020/09/21 12:20 EGPC 211220Z 20007KT 9999 FEW015 15/11 Q1010

-

free counters
QR Code Twitter Scottish Weather Network UK Weather Network
Argyll House B & B

Argyll House B & B is situated in North West Skye and is the perfect base to see all that the Isle of Skye has to offer. Bookings are been taken for 2021